createdAt,value
2022-11-18T00:00:28.952Z,99625.97
2022-11-18T00:02:31.897Z,99620.94
2022-11-18T00:04:39.672Z,99624.31
2022-11-18T00:06:46.577Z,99627.69
2022-11-18T00:08:48.503Z,99626.94
2022-11-18T00:10:54.280Z,99632.31
2022-11-18T00:13:14.717Z,99626.75
2022-11-18T00:15:16.532Z,99624.06
2022-11-18T00:17:18.339Z,99620.84
2022-11-18T00:19:23.531Z,99613.78
2022-11-18T00:21:25.313Z,99615.28
2022-11-18T00:23:27.133Z,99613.38
2022-11-18T00:25:36.801Z,99619.38
2022-11-18T00:27:38.704Z,99616.00
2022-11-18T00:29:40.705Z,99621.19
2022-11-18T00:31:49.993Z,99612.94
2022-11-18T00:33:59.256Z,99616.16
2022-11-18T00:36:02.146Z,99605.38
2022-11-18T00:38:05.013Z,99603.00
2022-11-18T00:40:08.399Z,99610.41
2022-11-18T00:42:35.237Z,99615.63
2022-11-18T00:44:37.337Z,99615.81
2022-11-18T00:46:39.166Z,99619.97
2022-11-18T00:48:41.645Z,99618.78
2022-11-18T00:50:44.512Z,99613.91
2022-11-18T00:52:57.339Z,99613.91
2022-11-18T00:54:59.246Z,99621.34
2022-11-18T00:57:01.153Z,99618.06
2022-11-18T00:59:03.029Z,99623.97
2022-11-18T01:01:06.153Z,99617.28
2022-11-18T01:03:09.251Z,99626.41
2022-11-18T01:05:11.078Z,99623.28
2022-11-18T01:07:13.148Z,99617.00
2022-11-18T01:09:16.337Z,99606.66
2022-11-18T01:11:37.903Z,99609.56
2022-11-18T01:13:40.696Z,99608.00
2022-11-18T01:16:00.805Z,99611.00
2022-11-18T01:18:02.559Z,99614.22
2022-11-18T01:20:11.754Z,99610.94
2022-11-18T01:22:21.476Z,99604.16
2022-11-18T01:24:33.993Z,99601.63
2022-11-18T01:26:42.463Z,99600.16
2022-11-18T01:28:45.839Z,99604.56
2022-11-18T01:30:51.181Z,99599.47
2022-11-18T01:32:54.218Z,99604.31
2022-11-18T01:34:58.062Z,99600.78
2022-11-18T01:37:00.025Z,99601.72
2022-11-18T01:39:02.092Z,99593.56
2022-11-18T01:41:03.939Z,99595.81
2022-11-18T01:43:19.212Z,99595.63
2022-11-18T01:45:37.545Z,99596.44
2022-11-18T01:47:45.470Z,99586.44
2022-11-18T01:49:47.382Z,99596.69
2022-11-18T01:51:57.043Z,99591.28
2022-11-18T01:54:13.867Z,99585.38
2022-11-18T01:56:19.271Z,99577.94
2022-11-18T01:58:27.625Z,99583.13
2022-11-18T02:00:30.540Z,99579.81
2022-11-18T02:02:35.806Z,99572.88
2022-11-18T02:04:43.884Z,99582.44
2022-11-18T02:06:47.465Z,99578.34
2022-11-18T02:08:51.498Z,99569.56
2022-11-18T02:10:54.401Z,99565.47
2022-11-18T02:12:57.427Z,99568.00
2022-11-18T02:15:00.465Z,99567.22
2022-11-18T02:17:09.356Z,99580.00
2022-11-18T02:19:46.294Z,99574.78
2022-11-18T02:22:06.309Z,99573.41
2022-11-18T02:24:10.648Z,99574.06
2022-11-18T02:26:53.197Z,99571.66
2022-11-18T02:29:01.998Z,99578.34
2022-11-18T02:31:44.659Z,99576.53
2022-11-18T02:34:13.629Z,99586.25
2022-11-18T02:36:29.817Z,99585.22
2022-11-18T02:38:46.590Z,99581.72
2022-11-18T02:40:57.441Z,99574.78
2022-11-18T02:43:05.736Z,99575.81
2022-11-18T02:45:17.395Z,99571.47
2022-11-18T02:47:21.000Z,99575.66
2022-11-18T02:49:32.601Z,99573.22
2022-11-18T02:51:36.430Z,99575.03
2022-11-18T02:53:48.066Z,99578.19
2022-11-18T02:55:55.724Z,99576.53
2022-11-18T02:57:59.432Z,99576.53
2022-11-18T03:00:01.317Z,99568.81
2022-11-18T03:02:03.372Z,99567.84
2022-11-18T03:04:05.419Z,99566.59
2022-11-18T03:06:19.971Z,99563.13
2022-11-18T03:08:37.186Z,99564.78
2022-11-18T03:10:50.311Z,99565.66
2022-11-18T03:13:11.324Z,99555.50
2022-11-18T03:15:29.426Z,99554.59
2022-11-18T03:17:34.085Z,99549.66
2022-11-18T03:20:15.295Z,99549.56
2022-11-18T03:22:20.722Z,99547.31
2022-11-18T03:24:40.699Z,99546.13
2022-11-18T03:26:49.055Z,99540.28
2022-11-18T03:29:04.606Z,99533.69
2022-11-18T03:31:24.902Z,99530.09
2022-11-18T03:33:37.765Z,99534.38
2022-11-18T03:35:42.870Z,99533.53
2022-11-18T03:37:46.328Z,99538.63
2022-11-18T03:39:54.731Z,99535.25
2022-11-18T03:42:21.287Z,99537.06
2022-11-18T03:44:31.125Z,99534.44
2022-11-18T03:46:59.706Z,99538.78
2022-11-18T03:49:12.971Z,99542.97
2022-11-18T03:51:19.883Z,99541.41
2022-11-18T03:53:34.348Z,99533.59
2022-11-18T03:55:45.245Z,99539.50
2022-11-18T03:58:18.780Z,99546.28
2022-11-18T04:00:30.163Z,99539.50
2022-11-18T04:02:32.219Z,99544.47
2022-11-18T04:04:35.294Z,99541.59
2022-11-18T04:07:26.445Z,99532.13
2022-11-18T04:09:52.169Z,99540.72
2022-11-18T04:12:05.038Z,99540.13
2022-11-18T04:14:11.004Z,99544.22
2022-11-18T04:16:18.455Z,99545.78
2022-11-18T04:18:21.642Z,99543.84
2022-11-18T04:20:29.289Z,99546.38
2022-11-18T04:22:31.200Z,99548.72
2022-11-18T04:24:35.541Z,99550.28
2022-11-18T04:26:37.353Z,99543.59
2022-11-18T04:28:39.165Z,99536.81
2022-11-18T04:30:48.062Z,99542.81
2022-11-18T04:32:56.921Z,99545.84
2022-11-18T04:34:58.897Z,99555.31
2022-11-18T04:37:02.774Z,99548.72
2022-11-18T04:39:06.148Z,99550.28
2022-11-18T04:41:12.017Z,99544.28
2022-11-18T04:43:15.827Z,99535.16
2022-11-18T04:45:17.769Z,99545.00
2022-11-18T04:47:19.800Z,99540.13
2022-11-18T04:49:22.290Z,99541.59
2022-11-18T04:51:31.857Z,99541.00
2022-11-18T04:53:34.669Z,99539.84
2022-11-18T04:55:37.518Z,99540.91
2022-11-18T04:57:39.339Z,99545.09
2022-11-18T04:59:41.301Z,99551.84
2022-11-18T05:01:43.193Z,99545.94
2022-11-18T05:03:50.315Z,99538.13
2022-11-18T05:05:52.472Z,99546.66
2022-11-18T05:07:54.341Z,99532.28
2022-11-18T05:09:58.134Z,99532.22
2022-11-18T05:12:19.752Z,99538.91
2022-11-18T05:14:30.694Z,99540.38
2022-11-18T05:16:35.558Z,99543.00
2022-11-18T05:18:38.376Z,99536.31
2022-11-18T05:20:41.854Z,99543.88
2022-11-18T05:22:44.809Z,99539.00
2022-11-18T05:24:47.892Z,99542.31
2022-11-18T05:27:00.200Z,99544.72
2022-11-18T05:29:06.069Z,99536.22
2022-11-18T05:31:16.459Z,99534.38
2022-11-18T05:33:24.459Z,99526.13
2022-11-18T05:35:26.382Z,99516.22
2022-11-18T05:37:35.266Z,99526.31
2022-11-18T05:39:40.159Z,99524.56
2022-11-18T05:42:00.566Z,99526.31
2022-11-18T05:44:03.469Z,99522.06
2022-11-18T05:46:06.292Z,99527.88
2022-11-18T05:48:16.719Z,99531.16
2022-11-18T05:50:21.272Z,99524.41
2022-11-18T05:52:28.412Z,99531.16
2022-11-18T05:54:32.249Z,99522.84
2022-11-18T05:56:38.133Z,99529.44
2022-11-18T05:58:41.047Z,99536.06
2022-11-18T06:00:47.499Z,99532.84
2022-11-18T06:02:51.470Z,99532.22
2022-11-18T06:04:59.823Z,99530.66
2022-11-18T06:07:30.392Z,99541.69
2022-11-18T06:09:41.753Z,99536.06
2022-11-18T06:11:55.802Z,99531.63
2022-11-18T06:14:18.830Z,99529.19
2022-11-18T06:16:24.800Z,99530.84
2022-11-18T06:18:32.456Z,99527.53
2022-11-18T06:20:41.358Z,99520.94
2022-11-18T06:22:46.456Z,99529.25
2022-11-18T06:25:01.354Z,99521.63
2022-11-18T06:27:04.535Z,99527.53
2022-11-18T06:29:10.405Z,99527.69
2022-11-18T06:31:12.347Z,99533.44
2022-11-18T06:33:14.287Z,99540.56
2022-11-18T06:35:18.123Z,99534.50
2022-11-18T06:37:22.074Z,99537.28
2022-11-18T06:39:24.023Z,99533.09
2022-11-18T06:41:26.827Z,99535.78
2022-11-18T06:43:42.071Z,99541.59
2022-11-18T06:46:08.919Z,99535.78
2022-11-18T06:48:11.641Z,99545.06
2022-11-18T06:50:25.994Z,99545.16
2022-11-18T06:52:34.699Z,99546.88
2022-11-18T06:54:42.219Z,99551.16
2022-11-18T06:56:53.175Z,99549.56
2022-11-18T06:59:02.250Z,99544.03
2022-11-18T07:01:25.729Z,99551.47
2022-11-18T07:03:27.790Z,99542.91
2022-11-18T07:05:38.670Z,99547.50
2022-11-18T07:07:51.756Z,99552.69
2022-11-18T07:09:55.645Z,99557.75
2022-11-18T07:12:00.725Z,99555.31
2022-11-18T07:14:06.696Z,99552.84
2022-11-18T07:16:22.925Z,99551.84
2022-11-18T07:18:26.812Z,99553.75
2022-11-18T07:20:35.767Z,99565.41
2022-11-18T07:22:52.637Z,99555.47
2022-11-18T07:24:54.614Z,99549.56
2022-11-18T07:27:02.435Z,99553.81
2022-11-18T07:29:11.470Z,99560.50
2022-11-18T07:31:20.700Z,99561.22
2022-11-18T07:33:22.575Z,99558.78
2022-11-18T07:35:28.505Z,99568.34
2022-11-18T07:37:30.351Z,99563.53
2022-11-18T07:39:32.277Z,99573.19
2022-11-18T07:41:39.352Z,99576.81
2022-11-18T07:44:00.077Z,99581.09
2022-11-18T07:46:24.137Z,99572.81
2022-11-18T07:48:26.070Z,99575.34
2022-11-18T07:50:35.213Z,99578.03
2022-11-18T07:52:38.050Z,99580.44
2022-11-18T07:54:40.934Z,99572.13
2022-11-18T07:56:55.082Z,99582.50
2022-11-18T07:58:58.944Z,99574.88
2022-11-18T08:01:22.396Z,99578.38
2022-11-18T08:03:29.405Z,99584.13
2022-11-18T08:05:33.405Z,99580.09
2022-11-18T08:07:35.421Z,99583.66
2022-11-18T08:09:41.403Z,99591.03
2022-11-18T08:11:53.577Z,99591.13
2022-11-18T08:13:57.424Z,99592.94
2022-11-18T08:16:17.118Z,99596.28
2022-11-18T08:18:32.306Z,99593.50
2022-11-18T08:20:39.043Z,99591.91
2022-11-18T08:22:42.076Z,99603.13
2022-11-18T08:24:51.614Z,99605.81
2022-11-18T08:26:53.600Z,99611.09
2022-11-18T08:29:00.801Z,99605.19
2022-11-18T08:31:16.957Z,99605.19
2022-11-18T08:33:27.784Z,99608.59
2022-11-18T08:35:33.465Z,99609.09
2022-11-18T08:37:50.532Z,99602.28
2022-11-18T08:39:55.509Z,99593.00
2022-11-18T08:41:58.887Z,99597.41
2022-11-18T08:44:12.373Z,99601.41
2022-11-18T08:46:37.669Z,99609.25
2022-11-18T08:48:40.606Z,99605.00
2022-11-18T08:50:43.485Z,99610.75
2022-11-18T08:52:45.360Z,99605.75
2022-11-18T08:54:47.309Z,99609.84
2022-11-18T08:56:50.764Z,99612.47
2022-11-18T08:59:12.237Z,99614.28
2022-11-18T09:01:23.528Z,99618.84
2022-11-18T09:03:32.103Z,99614.91
2022-11-18T09:05:43.394Z,99611.69
2022-11-18T09:07:46.286Z,99614.91
2022-11-18T09:09:51.393Z,99618.38
2022-11-18T09:11:53.376Z,99610.50
2022-11-18T09:16:30.286Z,99618.47
2022-11-18T09:18:33.014Z,99612.56
2022-11-18T09:20:34.860Z,99614.28
2022-11-18T09:22:43.651Z,99616.91
2022-11-18T09:24:46.497Z,99612.81
2022-11-18T09:27:07.787Z,99609.94
2022-11-18T09:29:14.258Z,99607.06
2022-11-18T09:31:19.077Z,99605.25
2022-11-18T09:33:21.795Z,99603.97
2022-11-18T09:35:25.681Z,99603.44
2022-11-18T09:37:27.624Z,99598.84
2022-11-18T09:39:31.476Z,99596.94
2022-11-18T09:41:48.605Z,99598.78
2022-11-18T09:44:12.641Z,99598.31
2022-11-18T09:46:55.302Z,99599.38
2022-11-18T09:49:13.110Z,99601.38
2022-11-18T09:51:28.765Z,99596.19
2022-11-18T09:53:31.941Z,99593.59
2022-11-18T09:55:41.926Z,99594.47
2022-11-18T09:57:54.688Z,99595.66
2022-11-18T09:59:56.806Z,99598.28
2022-11-18T10:02:17.354Z,99603.66
2022-11-18T10:04:21.961Z,99595.38
2022-11-18T10:06:34.441Z,99602.97
2022-11-18T10:08:46.061Z,99601.69
2022-11-18T10:11:00.726Z,99604.22
2022-11-18T10:13:16.879Z,99597.13
2022-11-18T10:15:22.194Z,99607.06
2022-11-18T10:17:35.189Z,99605.81
2022-11-18T10:20:28.290Z,99611.31
2022-11-18T10:22:50.907Z,99615.66
2022-11-18T10:24:55.908Z,99615.50
2022-11-18T10:27:00.279Z,99614.72
2022-11-18T10:29:07.679Z,99620.31
2022-11-18T10:31:16.435Z,99624.81
2022-11-18T10:33:33.796Z,99617.31
2022-11-18T10:35:38.655Z,99620.47
2022-11-18T10:38:09.053Z,99625.72
2022-11-18T10:40:24.519Z,99623.25
2022-11-18T10:42:48.128Z,99625.00
2022-11-18T10:44:50.072Z,99633.91
2022-11-18T10:46:52.070Z,99630.41
2022-11-18T10:49:19.720Z,99625.53
2022-11-18T10:51:26.513Z,99627.59
2022-11-18T10:53:34.722Z,99626.81
2022-11-18T10:55:37.656Z,99637.53
2022-11-18T10:57:46.630Z,99636.44
2022-11-18T10:59:57.693Z,99630.94
2022-11-18T11:02:38.940Z,99629.97
2022-11-18T11:04:41.910Z,99638.78
2022-11-18T11:06:46.930Z,99630.44
2022-11-18T11:09:01.442Z,99631.06
2022-11-18T11:11:26.458Z,99637.53
2022-11-18T11:13:32.769Z,99640.16
2022-11-18T11:15:48.524Z,99638.16
2022-11-18T11:18:16.878Z,99637.53
2022-11-18T11:20:24.678Z,99640.38
2022-11-18T11:22:29.278Z,99644.88
2022-11-18T11:24:32.159Z,99638.28
2022-11-18T11:29:34.721Z,99635.84
2022-11-18T11:32:23.233Z,99643.47
2022-11-18T11:34:36.461Z,99636.22
2022-11-18T11:37:04.668Z,99640.41
2022-11-18T11:39:37.875Z,99639.78
2022-11-18T11:42:08.879Z,99643.78
2022-11-18T11:44:45.875Z,99638.34
2022-11-18T11:47:11.260Z,99637.56
2022-11-18T11:49:44.125Z,99637.41
2022-11-18T11:52:02.825Z,99644.38
2022-11-18T11:54:14.585Z,99642.50
2022-11-18T11:56:55.655Z,99646.22
2022-11-18T11:59:11.521Z,99637.56
2022-11-18T12:01:38.447Z,99644.66
2022-11-18T12:03:52.372Z,99650.03
2022-11-18T12:05:58.454Z,99647.19
2022-11-18T12:08:03.859Z,99645.94
2022-11-18T12:10:26.121Z,99643.47
2022-11-18T12:12:54.089Z,99642.84
2022-11-18T12:15:35.650Z,99644.38
2022-11-18T12:17:54.159Z,99644.66
2022-11-18T12:20:59.637Z,99645.53
2022-11-18T12:23:18.108Z,99647.19
2022-11-18T12:25:51.977Z,99648.84
2022-11-18T12:27:59.955Z,99649.47
2022-11-18T12:30:19.092Z,99656.91
2022-11-18T12:32:47.077Z,99651.47
2022-11-18T12:34:59.591Z,99654.75
2022-11-18T12:37:26.362Z,99656.34
2022-11-18T12:39:28.236Z,99660.63
2022-11-18T12:42:00.506Z,99664.56
2022-11-18T12:44:10.931Z,99650.41
2022-11-18T12:46:44.407Z,99654.72
2022-11-18T12:48:47.717Z,99657.63
2022-11-18T12:50:51.882Z,99658.25
2022-11-18T12:52:55.266Z,99659.66
2022-11-18T12:55:31.037Z,99664.47
2022-11-18T12:57:40.670Z,99662.09
2022-11-18T12:59:54.720Z,99658.81
2022-11-18T13:02:25.332Z,99656.19
2022-11-18T13:04:27.211Z,99656.03
2022-11-18T13:06:31.619Z,99650.41
2022-11-18T13:08:34.678Z,99653.34
2022-11-18T13:10:54.919Z,99660.75
2022-11-18T13:13:00.757Z,99657.28
2022-11-18T13:15:29.092Z,99663.03
2022-11-18T13:17:58.756Z,99650.50
2022-11-18T13:20:33.679Z,99655.72
2022-11-18T13:22:54.995Z,99660.59
2022-11-18T13:24:56.901Z,99658.13
2022-11-18T13:27:01.085Z,99657.53
2022-11-18T13:29:49.778Z,99660.19
2022-11-18T13:32:04.584Z,99652.22
2022-11-18T13:34:27.724Z,99655.94
2022-11-18T13:36:33.398Z,99660.00
2022-11-18T13:38:36.414Z,99665.09
2022-11-18T13:41:04.741Z,99664.25
2022-11-18T13:43:26.004Z,99666.84
2022-11-18T13:45:31.438Z,99663.63
2022-11-18T13:47:42.370Z,99655.16
2022-11-18T13:50:07.806Z,99645.28
2022-11-18T13:52:21.491Z,99662.09
2022-11-18T13:54:35.594Z,99661.25
2022-11-18T13:56:47.517Z,99671.81
2022-11-18T13:59:18.934Z,99673.53
2022-11-18T14:01:41.018Z,99677.09
2022-11-18T14:03:52.740Z,99678.69
2022-11-18T14:05:59.324Z,99675.75
2022-11-18T14:08:07.911Z,99678.09
2022-11-18T14:10:15.728Z,99675.28
2022-11-18T14:12:24.584Z,99679.63
2022-11-18T14:14:44.557Z,99684.56
2022-11-18T14:16:47.466Z,99687.75
2022-11-18T14:18:51.999Z,99683.47
2022-11-18T14:20:55.071Z,99684.16
2022-11-18T14:23:03.397Z,99690.88
2022-11-18T14:25:30.513Z,99691.84
2022-11-18T14:27:50.632Z,99692.91
2022-11-18T14:29:52.504Z,99696.53
2022-11-18T14:32:27.735Z,99698.03
2022-11-18T14:34:32.053Z,99699.69
2022-11-18T14:36:33.974Z,99703.97
2022-11-18T14:38:43.563Z,99696.19
2022-11-18T14:41:00.259Z,99711.59
2022-11-18T14:43:04.908Z,99701.44
2022-11-18T14:45:07.040Z,99708.06
2022-11-18T14:47:21.381Z,99711.34
2022-11-18T14:49:25.165Z,99710.75
2022-11-18T14:51:28.059Z,99729.66
2022-11-18T14:53:29.929Z,99723.25
2022-11-18T14:55:37.592Z,99719.81
2022-11-18T14:57:41.457Z,99720.53
2022-11-18T14:59:43.501Z,99726.19
2022-11-18T15:01:47.213Z,99722.69
2022-11-18T15:03:49.189Z,99729.81
2022-11-18T15:05:51.039Z,99723.47
2022-11-18T15:07:54.011Z,99725.66
2022-11-18T15:09:56.005Z,99724.97
2022-11-18T15:11:57.927Z,99731.22
2022-11-18T15:13:59.881Z,99732.63
2022-11-18T15:16:10.994Z,99734.19
2022-11-18T15:18:12.850Z,99740.97
2022-11-18T15:20:20.359Z,99735.22
2022-11-18T15:22:23.305Z,99744.47
2022-11-18T15:24:27.199Z,99740.66
2022-11-18T15:26:35.850Z,99752.63
2022-11-18T15:28:37.706Z,99744.28
2022-11-18T15:30:39.574Z,99749.00
2022-11-18T15:32:41.873Z,99753.59
2022-11-18T15:34:43.721Z,99764.75
2022-11-18T15:36:47.757Z,99757.34
2022-11-18T15:38:51.487Z,99747.25
2022-11-18T15:40:53.475Z,99756.66
2022-11-18T15:42:56.340Z,99756.56
2022-11-18T15:44:59.175Z,99760.31
2022-11-18T15:47:01.807Z,99759.16
2022-11-18T15:49:04.651Z,99759.44
2022-11-18T15:51:11.635Z,99770.66
2022-11-18T15:53:15.164Z,99778.66
2022-11-18T15:55:18.329Z,99775.53
2022-11-18T15:57:20.398Z,99788.31
2022-11-18T15:59:22.863Z,99798.94
2022-11-18T16:01:27.477Z,99795.28
2022-11-18T16:03:29.401Z,99790.16
2022-11-18T16:05:31.321Z,99803.88
2022-11-18T16:07:33.303Z,99802.75
2022-11-18T16:09:53.969Z,99801.78
2022-11-18T16:12:14.405Z,99808.22
2022-11-18T16:14:18.989Z,99810.75
2022-11-18T16:16:25.542Z,99799.69
2022-11-18T16:18:27.612Z,99803.63
2022-11-18T16:20:30.042Z,99809.09
2022-11-18T16:22:32.306Z,99819.28
2022-11-18T16:24:35.260Z,99820.03
2022-11-18T16:26:37.770Z,99813.38
2022-11-18T16:28:40.208Z,99819.78
2022-11-18T16:31:06.369Z,99828.13
2022-11-18T16:33:08.450Z,99818.47
2022-11-18T16:35:19.639Z,99818.56
2022-11-18T16:37:23.764Z,99814.19
2022-11-18T16:39:28.031Z,99820.63
2022-11-18T16:41:32.646Z,99824.44
2022-11-18T16:43:34.494Z,99829.66
2022-11-18T16:45:36.421Z,99838.88
2022-11-18T16:47:38.702Z,99857.63
2022-11-18T16:49:42.102Z,99831.00
2022-11-18T16:51:47.117Z,99846.91
2022-11-18T16:54:00.645Z,99846.41
2022-11-18T16:56:07.432Z,99846.41
2022-11-18T16:58:09.482Z,99842.75
2022-11-18T17:00:12.901Z,99851.56
2022-11-18T17:02:16.608Z,99853.63
2022-11-18T17:04:19.968Z,99851.09
2022-11-18T17:06:24.548Z,99851.84
2022-11-18T17:08:26.454Z,99833.81
2022-11-18T17:10:30.730Z,99842.91
2022-11-18T17:12:32.627Z,99844.84
2022-11-18T17:14:38.626Z,99848.00
2022-11-18T17:16:40.924Z,99854.75
2022-11-18T17:18:44.522Z,99846.81
2022-11-18T17:20:46.857Z,99854.19
2022-11-18T17:22:52.701Z,99843.94
2022-11-18T17:24:55.559Z,99848.13
2022-11-18T17:26:58.420Z,99856.25
2022-11-18T17:29:00.294Z,99843.75
2022-11-18T17:31:06.555Z,99847.91
2022-11-18T17:33:09.519Z,99844.13
2022-11-18T17:35:12.536Z,99847.28
2022-11-18T17:37:15.496Z,99846.09
2022-11-18T17:39:19.240Z,99855.00
2022-11-18T17:41:43.244Z,99855.22
2022-11-18T17:43:46.060Z,99861.81
2022-11-18T17:45:52.469Z,99866.44
2022-11-18T17:47:54.506Z,99860.63
2022-11-18T17:50:00.874Z,99865.50
2022-11-18T17:52:05.985Z,99859.19
2022-11-18T17:54:08.826Z,99855.88
2022-11-18T17:56:11.821Z,99861.69
2022-11-18T17:58:14.718Z,99862.94
2022-11-18T18:00:17.380Z,99857.03
2022-11-18T18:02:21.729Z,99852.69
2022-11-18T18:04:24.257Z,99847.66
2022-11-18T18:06:27.098Z,99859.25
2022-11-18T18:08:30.835Z,99855.88
2022-11-18T18:10:32.820Z,99862.75
2022-11-18T18:12:54.372Z,99870.38
2022-11-18T18:14:57.424Z,99871.28
2022-11-18T18:17:00.472Z,99868.53
2022-11-18T18:19:05.080Z,99871.06
2022-11-18T18:21:12.677Z,99873.69
2022-11-18T18:23:15.453Z,99872.81
2022-11-18T18:25:17.786Z,99874.56
2022-11-18T18:27:20.680Z,99878.91
2022-11-18T18:29:22.792Z,99881.34
2022-11-18T18:31:28.727Z,99878.03
2022-11-18T18:33:34.162Z,99876.88
2022-11-18T18:35:41.578Z,99883.66
2022-11-18T18:37:49.853Z,99887.75
2022-11-18T18:39:54.258Z,99887.91
2022-11-18T18:41:58.122Z,99887.06
2022-11-18T18:44:00.843Z,99884.63
2022-11-18T18:46:31.526Z,99885.59
2022-11-18T18:48:34.253Z,99888.13
2022-11-18T18:50:36.084Z,99881.34
2022-11-18T18:52:39.595Z,99887.34
2022-11-18T18:54:41.738Z,99892.56
2022-11-18T18:56:44.092Z,99895.97
2022-11-18T18:58:47.704Z,99898.59
2022-11-18T19:00:52.142Z,99895.97
2022-11-18T19:02:57.499Z,99893.16
2022-11-18T19:05:00.956Z,99897.63
2022-11-18T19:07:03.842Z,99898.84
2022-11-18T19:09:12.155Z,99894.78
2022-11-18T19:11:34.975Z,99899.94
2022-11-18T19:13:37.875Z,99909.09
2022-11-18T19:15:39.896Z,99896.44
2022-11-18T19:17:41.900Z,99901.47
2022-11-18T19:20:03.462Z,99896.44
2022-11-18T19:22:06.183Z,99898.19
2022-11-18T19:24:34.899Z,99913.16
2022-11-18T19:26:34.127Z,99898.84
2022-11-18T19:28:42.153Z,99903.22
2022-11-18T19:30:44.660Z,99914.06
2022-11-18T19:32:52.593Z,99906.50
2022-11-18T19:34:54.589Z,99905.72
2022-11-18T19:36:57.806Z,99915.22
2022-11-18T19:39:04.141Z,99910.19
2022-11-18T19:41:10.262Z,99921.13
2022-11-18T19:43:13.256Z,99926.94
2022-11-18T19:45:16.062Z,99926.66
2022-11-18T19:47:18.410Z,99926.84
2022-11-18T19:49:21.391Z,99926.84
2022-11-18T19:51:25.544Z,99924.22
2022-11-18T19:53:33.317Z,99927.72
2022-11-18T19:55:35.757Z,99925.09
2022-11-18T19:57:38.068Z,99927.72
2022-11-18T19:59:40.031Z,99927.41
2022-11-18T20:01:42.370Z,99921.50
2022-11-18T20:03:49.624Z,99931.56
2022-11-18T20:05:55.032Z,99924.88
2022-11-18T20:07:58.220Z,99934.94
2022-11-18T20:10:00.897Z,99933.22
2022-11-18T20:12:04.248Z,99932.13
2022-11-18T20:14:08.766Z,99930.50
2022-11-18T20:16:21.437Z,99935.44
2022-11-18T20:18:25.645Z,99932.91
2022-11-18T20:20:33.201Z,99936.50
2022-11-18T20:22:37.190Z,99931.28
2022-11-18T20:24:40.278Z,99935.44
2022-11-18T20:26:44.311Z,99940.47
2022-11-18T20:28:53.024Z,99933.47
2022-11-18T20:31:02.176Z,99938.06
2022-11-18T20:33:10.631Z,99940.06
2022-11-18T20:35:13.785Z,99942.56
2022-11-18T20:37:23.337Z,99951.09
2022-11-18T20:39:29.850Z,99943.66
2022-11-18T20:41:33.032Z,99947.03
2022-11-18T20:43:37.589Z,99948.56
2022-11-18T20:45:45.948Z,99948.56
2022-11-18T20:47:48.098Z,99946.19
2022-11-18T20:49:51.367Z,99943.34
2022-11-18T20:52:05.341Z,99953.16
2022-11-18T20:54:09.769Z,99957.03
2022-11-18T20:56:26.111Z,99944.66
2022-11-18T20:58:28.587Z,99947.38
2022-11-18T21:00:30.711Z,99948.56
2022-11-18T21:02:33.874Z,99954.06
2022-11-18T21:04:36.240Z,99954.69
2022-11-18T21:06:39.114Z,99958.94
2022-11-18T21:08:45.587Z,99955.88
2022-11-18T21:10:48.881Z,99957.28
2022-11-18T21:13:09.133Z,99965.44
2022-11-18T21:15:11.032Z,99961.09
2022-11-18T21:17:13.919Z,99963.72
2022-11-18T21:19:17.304Z,99971.47
2022-11-18T21:21:37.854Z,99972.31
2022-11-18T21:23:39.799Z,99969.16
2022-11-18T21:25:44.602Z,99965.66
2022-11-18T21:27:46.894Z,99968.25
2022-11-18T21:29:50.196Z,99969.72
2022-11-18T21:31:54.039Z,99973.97
2022-11-18T21:33:57.566Z,99971.69
2022-11-18T21:35:59.924Z,99971.47
2022-11-18T21:38:06.187Z,99973.59
2022-11-18T21:40:08.609Z,99985.41
2022-11-18T21:42:10.526Z,99976.13
2022-11-18T21:44:14.681Z,99969.13
2022-11-18T21:46:17.688Z,99986.06
2022-11-18T21:48:19.583Z,99981.09
2022-11-18T21:50:21.467Z,99974.69
2022-11-18T21:52:24.528Z,99986.47
2022-11-18T21:54:26.418Z,99984.16
2022-11-18T21:56:31.237Z,99987.50
2022-11-18T21:58:33.857Z,99987.78
2022-11-18T22:00:35.750Z,99989.00
2022-11-18T22:02:37.741Z,99985.41
2022-11-18T22:04:54.716Z,99983.44
2022-11-18T22:06:56.679Z,99985.00
2022-11-18T22:08:58.939Z,99985.75
2022-11-18T22:11:03.044Z,99986.31
2022-11-18T22:13:08.063Z,99995.41
2022-11-18T22:15:11.374Z,99996.84
2022-11-18T22:17:14.183Z,99998.56
2022-11-18T22:19:16.010Z,99996.53
2022-11-18T22:21:20.701Z,100002.75
2022-11-18T22:23:22.564Z,99999.06
2022-11-18T22:25:24.770Z,100007.28
2022-11-18T22:27:27.115Z,100008.03
2022-11-18T22:29:29.026Z,100001.16
2022-11-18T22:31:31.036Z,100005.31
2022-11-18T22:33:34.826Z,100016.81
2022-11-18T22:35:36.741Z,100015.91
2022-11-18T22:37:38.598Z,100009.16
2022-11-18T22:39:41.470Z,100010.81
2022-11-18T22:42:02.169Z,100015.03
2022-11-18T22:44:07.748Z,100018.09
2022-11-18T22:46:10.982Z,100012.53
2022-11-18T22:48:12.748Z,100018.75
2022-11-18T22:50:16.409Z,100017.91
2022-11-18T22:52:18.325Z,100009.50
2022-11-18T22:56:42.314Z,100008.63
2022-11-18T22:58:44.597Z,100010.16
2022-11-18T23:01:57.540Z,100006.00
2022-11-18T23:03:59.455Z,100006.97
2022-11-18T23:06:02.528Z,100011.03
2022-11-18T23:08:04.479Z,100013.34
2022-11-18T23:10:06.647Z,100003.38
2022-11-18T23:12:26.911Z,100005.44
2022-11-18T23:14:28.789Z,100003.81
2022-11-18T23:16:33.204Z,100006.19
2022-11-18T23:18:35.138Z,100008.94
2022-11-18T23:20:37.086Z,100006.44
2022-11-18T23:22:39.015Z,100005.44
2022-11-18T23:24:41.868Z,99992.34
2022-11-18T23:26:44.669Z,100004.91
2022-11-18T23:28:46.711Z,100010.69
2022-11-18T23:30:50.625Z,100001.75
2022-11-18T23:32:54.128Z,100006.13
2022-11-18T23:34:55.998Z,100004.34
2022-11-18T23:36:59.986Z,100008.50
2022-11-18T23:39:01.859Z,100005.88
2022-11-18T23:41:09.887Z,100002.38
2022-11-18T23:43:11.769Z,99998.47
2022-11-18T23:45:13.731Z,100000.09
2022-11-18T23:47:16.606Z,99998.00
2022-11-18T23:49:18.707Z,100010.19
2022-11-18T23:51:22.202Z,100007.97
2022-11-18T23:53:25.603Z,100007.31
2022-11-18T23:55:27.453Z,100011.34
2022-11-18T23:57:29.311Z,100008.03
2022-11-18T23:59:31.425Z,100004.97
